createdAt,value
2019-04-30T00:00:38.436Z,11.33
2019-04-30T00:01:37.458Z,11.32
2019-04-30T00:02:40.052Z,11.40
2019-04-30T00:03:37.455Z,11.18
2019-04-30T00:04:40.432Z,11.17
2019-04-30T00:05:37.442Z,11.22
2019-04-30T00:06:39.541Z,11.26
2019-04-30T00:07:38.259Z,11.19
2019-04-30T00:08:39.132Z,11.29
2019-04-30T00:09:37.421Z,11.22
2019-04-30T00:10:41.069Z,11.30
2019-04-30T00:11:37.412Z,11.17
2019-04-30T00:12:39.546Z,11.19
2019-04-30T00:13:37.400Z,11.32
2019-04-30T00:14:41.068Z,11.26
2019-04-30T00:15:37.390Z,11.27
2019-04-30T00:16:39.860Z,11.11
2019-04-30T00:17:37.385Z,11.07
2019-04-30T00:18:39.556Z,11.08
2019-04-30T00:19:37.376Z,11.05
2019-04-30T00:20:38.705Z,10.96
2019-04-30T00:21:37.369Z,11.11
2019-04-30T00:22:39.239Z,10.93
2019-04-30T00:23:37.352Z,11.04
2019-04-30T00:24:39.930Z,10.93
2019-04-30T00:25:37.346Z,11.05
2019-04-30T00:26:39.946Z,10.93
2019-04-30T00:27:37.333Z,11.08
2019-04-30T00:28:39.440Z,11.07
2019-04-30T00:29:37.324Z,11.07
2019-04-30T00:30:39.262Z,11.14
2019-04-30T00:31:37.321Z,11.07
2019-04-30T00:32:43.511Z,10.89
2019-04-30T00:33:37.308Z,11.02
2019-04-30T00:34:39.378Z,10.81
2019-04-30T00:35:37.296Z,10.92
2019-04-30T00:36:37.539Z,10.84
2019-04-30T00:37:37.294Z,10.82
2019-04-30T00:38:37.957Z,10.82
2019-04-30T00:39:37.275Z,10.87
2019-04-30T00:40:37.273Z,10.92
2019-04-30T00:41:39.837Z,10.79
2019-04-30T00:42:37.264Z,11.05
2019-04-30T00:43:37.649Z,10.89
2019-04-30T00:44:37.258Z,10.74
2019-04-30T00:45:39.963Z,10.72
2019-04-30T00:46:37.249Z,10.72
2019-04-30T00:47:39.460Z,10.71
2019-04-30T00:48:37.237Z,10.67
2019-04-30T00:49:37.232Z,10.59
2019-04-30T00:50:37.440Z,10.57
2019-04-30T00:51:37.217Z,10.74
2019-04-30T00:52:37.455Z,10.94
2019-04-30T00:53:37.207Z,10.84
2019-04-30T00:54:37.214Z,10.78
2019-04-30T00:55:38.115Z,10.82
2019-04-30T00:56:37.194Z,10.89
2019-04-30T00:57:43.581Z,10.94
2019-04-30T00:58:37.190Z,10.84
2019-04-30T00:59:39.862Z,10.84
2019-04-30T01:00:37.222Z,10.79
2019-04-30T01:01:43.379Z,10.89
2019-04-30T01:02:37.169Z,10.92
2019-04-30T01:03:39.535Z,10.90
2019-04-30T01:04:37.162Z,10.92
2019-04-30T01:05:39.592Z,10.93
2019-04-30T01:06:37.145Z,10.90
2019-04-30T01:07:40.063Z,10.87
2019-04-30T01:08:37.154Z,10.94
2019-04-30T01:09:39.644Z,10.82
2019-04-30T01:10:37.125Z,10.90
2019-04-30T01:11:39.684Z,11.00
2019-04-30T01:12:44.195Z,10.84
2019-04-30T01:13:38.897Z,11.04
2019-04-30T01:14:38.602Z,10.78
2019-04-30T01:15:38.972Z,10.72
2019-04-30T01:16:37.101Z,10.89
2019-04-30T01:17:38.264Z,10.68
2019-04-30T01:18:38.923Z,10.68
2019-04-30T01:19:37.083Z,10.74
2019-04-30T01:20:38.604Z,10.78
2019-04-30T01:21:40.206Z,10.76
2019-04-30T01:22:38.764Z,10.81
2019-04-30T01:23:43.089Z,10.89
2019-04-30T01:24:38.692Z,10.79
2019-04-30T01:25:38.778Z,10.78
2019-04-30T01:26:37.049Z,10.56
2019-04-30T01:27:39.547Z,10.51
2019-04-30T01:28:38.596Z,10.44
2019-04-30T01:29:41.018Z,10.63
2019-04-30T01:30:37.030Z,10.57
2019-04-30T01:31:40.402Z,10.49
2019-04-30T01:32:37.020Z,10.59
2019-04-30T01:33:38.898Z,10.57
2019-04-30T01:34:37.023Z,10.72
2019-04-30T01:35:38.249Z,10.75
2019-04-30T01:36:37.003Z,10.79
2019-04-30T01:37:38.671Z,10.69
2019-04-30T01:38:40.086Z,10.60
2019-04-30T01:39:36.988Z,10.57
2019-04-30T01:40:38.416Z,10.41
2019-04-30T01:41:39.990Z,10.61
2019-04-30T01:42:42.850Z,10.46
2019-04-30T01:43:38.591Z,10.42
2019-04-30T01:44:39.098Z,10.41
2019-04-30T01:45:38.681Z,10.46
2019-04-30T01:46:38.992Z,10.60
2019-04-30T01:47:36.941Z,10.57
2019-04-30T01:48:36.938Z,10.44
2019-04-30T01:49:42.635Z,10.48
2019-04-30T01:50:38.751Z,10.37
2019-04-30T01:51:38.698Z,10.30
2019-04-30T01:52:38.831Z,10.19
2019-04-30T01:53:38.674Z,10.05
2019-04-30T01:54:36.910Z,10.02
2019-04-30T01:55:36.905Z,10.15
2019-04-30T01:56:38.803Z,10.15
2019-04-30T01:57:36.900Z,10.22
2019-04-30T01:58:36.888Z,10.15
2019-04-30T01:59:38.767Z,10.25
2019-04-30T02:00:36.885Z,10.46
2019-04-30T02:01:38.942Z,10.51
2019-04-30T02:02:36.872Z,10.48
2019-04-30T02:03:36.861Z,10.35
2019-04-30T02:04:36.862Z,10.16
2019-04-30T02:05:38.570Z,10.38
2019-04-30T02:06:36.847Z,10.48
2019-04-30T02:07:40.099Z,10.41
2019-04-30T02:08:36.838Z,10.40
2019-04-30T02:09:38.710Z,10.25
2019-04-30T02:10:36.832Z,10.30
2019-04-30T02:11:38.735Z,10.28
2019-04-30T02:12:36.822Z,10.42
2019-04-30T02:13:36.811Z,10.37
2019-04-30T02:14:36.810Z,10.46
2019-04-30T02:15:36.803Z,10.49
2019-04-30T02:16:36.805Z,10.34
2019-04-30T02:17:38.736Z,10.53
2019-04-30T02:18:36.800Z,10.42
2019-04-30T02:19:36.788Z,10.31
2019-04-30T02:20:38.372Z,10.33
2019-04-30T02:21:38.280Z,10.22
2019-04-30T02:22:38.616Z,10.05
2019-04-30T02:23:36.764Z,10.04
2019-04-30T02:24:38.623Z,10.01
2019-04-30T02:25:36.750Z,10.04
2019-04-30T02:26:38.401Z,10.01
2019-04-30T02:27:36.748Z,9.89
2019-04-30T02:28:36.736Z,9.99
2019-04-30T02:29:36.738Z,10.02
2019-04-30T02:30:36.732Z,10.09
2019-04-30T02:31:36.735Z,10.15
2019-04-30T02:32:39.381Z,9.98
2019-04-30T02:33:36.721Z,10.13
2019-04-30T02:34:36.711Z,10.01
2019-04-30T02:35:36.701Z,9.99
2019-04-30T02:36:36.716Z,10.01
2019-04-30T02:37:36.696Z,9.92
2019-04-30T02:38:36.692Z,10.02
2019-04-30T02:39:36.686Z,9.97
2019-04-30T02:40:36.680Z,9.86
2019-04-30T02:41:36.676Z,10.01
2019-04-30T02:42:36.668Z,10.04
2019-04-30T02:43:36.663Z,10.05
2019-04-30T02:44:36.663Z,10.16
2019-04-30T02:45:36.657Z,10.16
2019-04-30T02:46:36.647Z,10.17
2019-04-30T02:47:36.647Z,10.01
2019-04-30T02:48:39.392Z,9.99
2019-04-30T02:49:36.630Z,10.05
2019-04-30T02:50:39.196Z,9.99
2019-04-30T02:51:36.624Z,9.89
2019-04-30T02:52:36.617Z,10.01
2019-04-30T02:53:36.617Z,10.01
2019-04-30T02:54:36.608Z,9.89
2019-04-30T02:55:36.607Z,9.98
2019-04-30T02:56:36.596Z,10.04
2019-04-30T02:57:36.591Z,10.23
2019-04-30T02:58:36.594Z,10.28
2019-04-30T02:59:36.585Z,10.20
2019-04-30T03:00:38.896Z,10.31
2019-04-30T03:01:36.566Z,10.23
2019-04-30T03:02:39.155Z,10.17
2019-04-30T03:03:36.560Z,10.23
2019-04-30T03:04:39.382Z,10.30
2019-04-30T03:05:36.554Z,10.23
2019-04-30T03:06:36.545Z,10.12
2019-04-30T03:07:36.541Z,10.22
2019-04-30T03:08:36.536Z,10.04
2019-04-30T03:09:36.527Z,10.09
2019-04-30T03:10:36.525Z,10.19
2019-04-30T03:11:36.526Z,10.31
2019-04-30T03:12:36.512Z,10.35
2019-04-30T03:13:39.984Z,10.34
2019-04-30T03:14:36.501Z,10.37
2019-04-30T03:15:39.246Z,10.15
2019-04-30T03:16:36.490Z,10.05
2019-04-30T03:17:39.333Z,10.12
2019-04-30T03:18:36.485Z,10.13
2019-04-30T03:19:36.482Z,10.17
2019-04-30T03:20:36.825Z,10.12
2019-04-30T03:21:36.472Z,10.13
2019-04-30T03:22:36.462Z,10.19
2019-04-30T03:23:38.974Z,10.13
2019-04-30T03:24:36.453Z,10.30
2019-04-30T03:25:36.444Z,10.28
2019-04-30T03:26:36.443Z,10.10
2019-04-30T03:27:36.440Z,10.16
2019-04-30T03:28:36.449Z,10.23
2019-04-30T03:29:36.423Z,10.30
2019-04-30T03:30:41.363Z,9.99
2019-04-30T03:31:36.416Z,10.16
2019-04-30T03:32:41.390Z,9.97
2019-04-30T03:33:36.408Z,9.94
2019-04-30T03:34:36.398Z,9.84
2019-04-30T03:35:36.395Z,9.83
2019-04-30T03:36:36.390Z,9.84
2019-04-30T03:37:36.390Z,9.80
2019-04-30T03:38:36.382Z,9.76
2019-04-30T03:39:36.372Z,9.82
2019-04-30T03:40:36.374Z,9.86
2019-04-30T03:41:36.408Z,9.74
2019-04-30T03:42:36.363Z,9.80
2019-04-30T03:43:36.362Z,9.69
2019-04-30T03:44:36.346Z,9.77
2019-04-30T03:45:36.341Z,9.61
2019-04-30T03:46:36.367Z,9.66
2019-04-30T03:47:36.348Z,9.65
2019-04-30T03:48:36.330Z,9.74
2019-04-30T03:49:36.320Z,9.61
2019-04-30T03:50:49.380Z,9.58
2019-04-30T03:51:36.320Z,9.41
2019-04-30T03:52:36.307Z,9.47
2019-04-30T03:53:36.302Z,9.34
2019-04-30T03:54:36.300Z,9.34
2019-04-30T03:55:36.291Z,9.23
2019-04-30T03:56:36.283Z,9.36
2019-04-30T03:57:36.278Z,9.34
2019-04-30T03:58:36.271Z,9.22
2019-04-30T03:59:36.268Z,9.16
2019-04-30T04:00:36.267Z,9.23
2019-04-30T04:01:36.263Z,9.11
2019-04-30T04:02:36.257Z,9.16
2019-04-30T04:03:36.253Z,9.11
2019-04-30T04:04:36.243Z,9.08
2019-04-30T04:05:36.237Z,8.97
2019-04-30T04:06:36.235Z,9.02
2019-04-30T04:07:36.223Z,9.00
2019-04-30T04:08:36.224Z,8.97
2019-04-30T04:09:36.220Z,8.89
2019-04-30T04:10:36.211Z,8.85
2019-04-30T04:11:36.206Z,8.70
2019-04-30T04:12:36.203Z,8.67
2019-04-30T04:13:36.195Z,8.63
2019-04-30T04:14:36.184Z,8.61
2019-04-30T04:15:36.183Z,8.64
2019-04-30T04:16:36.176Z,8.66
2019-04-30T04:17:36.173Z,8.56
2019-04-30T04:18:36.162Z,8.60
2019-04-30T04:19:36.156Z,8.56
2019-04-30T04:20:36.157Z,8.66
2019-04-30T04:21:36.150Z,8.60
2019-04-30T04:22:36.138Z,8.49
2019-04-30T04:23:36.141Z,8.46
2019-04-30T04:24:36.136Z,8.56
2019-04-30T04:25:36.125Z,8.53
2019-04-30T04:26:36.126Z,8.55
2019-04-30T04:27:36.117Z,8.66
2019-04-30T04:28:36.116Z,8.69
2019-04-30T04:29:36.106Z,8.71
2019-04-30T04:30:36.106Z,8.82
2019-04-30T04:31:36.090Z,8.73
2019-04-30T04:32:36.084Z,8.84
2019-04-30T04:33:36.079Z,8.84
2019-04-30T04:34:36.071Z,8.82
2019-04-30T04:35:36.079Z,8.88
2019-04-30T04:36:36.069Z,8.88
2019-04-30T04:37:36.058Z,8.84
2019-04-30T04:38:36.051Z,8.82
2019-04-30T04:39:36.047Z,8.79
2019-04-30T04:40:36.037Z,8.82
2019-04-30T04:41:36.036Z,8.82
2019-04-30T04:42:36.031Z,8.92
2019-04-30T04:43:36.027Z,8.99
2019-04-30T04:44:36.020Z,9.04
2019-04-30T04:45:36.019Z,9.03
2019-04-30T04:46:36.006Z,9.16
2019-04-30T04:47:36.005Z,9.26
2019-04-30T04:48:35.998Z,9.21
2019-04-30T04:49:35.993Z,9.13
2019-04-30T04:50:35.985Z,9.29
2019-04-30T04:51:41.110Z,9.14
2019-04-30T04:52:35.977Z,9.16
2019-04-30T04:53:35.964Z,9.13
2019-04-30T04:54:35.965Z,9.02
2019-04-30T04:55:35.959Z,9.16
2019-04-30T04:56:35.949Z,9.14
2019-04-30T04:57:35.948Z,9.13
2019-04-30T04:58:35.944Z,9.16
2019-04-30T04:59:35.930Z,9.23
2019-04-30T05:00:35.935Z,9.21
2019-04-30T05:01:35.922Z,9.18
2019-04-30T05:02:35.921Z,9.23
2019-04-30T05:03:35.916Z,9.13
2019-04-30T05:04:35.904Z,9.19
2019-04-30T05:05:35.905Z,9.02
2019-04-30T05:06:35.899Z,9.03
2019-04-30T05:07:35.886Z,9.10
2019-04-30T05:08:35.886Z,9.23
2019-04-30T05:09:35.874Z,9.25
2019-04-30T05:10:35.878Z,9.37
2019-04-30T05:11:35.871Z,9.37
2019-04-30T05:12:37.430Z,9.16
2019-04-30T05:13:35.859Z,9.03
2019-04-30T05:14:35.871Z,9.08
2019-04-30T05:15:35.847Z,9.02
2019-04-30T05:16:35.842Z,9.00
2019-04-30T05:17:35.837Z,9.25
2019-04-30T05:18:35.824Z,9.43
2019-04-30T05:19:35.825Z,9.54
2019-04-30T05:20:35.815Z,9.40
2019-04-30T05:21:42.685Z,9.40
2019-04-30T05:22:35.810Z,9.55
2019-04-30T05:23:35.800Z,9.55
2019-04-30T05:24:35.792Z,9.68
2019-04-30T05:25:35.790Z,9.65
2019-04-30T05:26:35.784Z,9.74
2019-04-30T05:27:35.779Z,9.89
2019-04-30T05:28:35.773Z,9.72
2019-04-30T05:29:35.774Z,9.68
2019-04-30T05:30:35.768Z,9.86
2019-04-30T05:31:35.765Z,9.76
2019-04-30T05:32:35.752Z,9.79
2019-04-30T05:33:35.749Z,9.83
2019-04-30T05:34:35.743Z,9.83
2019-04-30T05:35:35.739Z,9.69
2019-04-30T05:36:35.731Z,9.69
2019-04-30T05:37:35.730Z,9.66
2019-04-30T05:38:35.722Z,9.77
2019-04-30T05:39:35.717Z,9.77
2019-04-30T05:40:35.710Z,9.99
2019-04-30T05:41:35.707Z,9.95
2019-04-30T05:42:35.699Z,10.09
2019-04-30T05:43:35.700Z,10.19
2019-04-30T05:44:35.693Z,10.38
2019-04-30T05:45:35.690Z,10.38
2019-04-30T05:46:35.679Z,10.33
2019-04-30T05:47:35.682Z,10.41
2019-04-30T05:48:35.671Z,10.34
2019-04-30T05:49:35.670Z,10.19
2019-04-30T05:50:35.669Z,10.35
2019-04-30T05:51:35.660Z,10.35
2019-04-30T05:52:35.653Z,10.23
2019-04-30T05:53:35.652Z,10.34
2019-04-30T05:54:35.643Z,10.41
2019-04-30T05:55:35.637Z,10.26
2019-04-30T05:56:35.635Z,10.20
2019-04-30T05:57:35.628Z,10.42
2019-04-30T05:58:35.622Z,10.40
2019-04-30T05:59:35.623Z,10.61
2019-04-30T06:00:35.615Z,10.40
2019-04-30T06:01:35.613Z,10.49
2019-04-30T06:02:35.605Z,10.54
2019-04-30T06:03:35.600Z,10.87
2019-04-30T06:04:35.603Z,10.90
2019-04-30T06:05:35.590Z,10.81
2019-04-30T06:06:35.590Z,10.79
2019-04-30T06:07:35.584Z,11.10
2019-04-30T06:08:35.578Z,10.90
2019-04-30T06:09:35.579Z,10.46
2019-04-30T06:10:35.570Z,10.34
2019-04-30T06:11:35.567Z,10.40
2019-04-30T06:12:35.562Z,10.38
2019-04-30T06:13:35.562Z,10.54
2019-04-30T06:14:48.004Z,10.38
2019-04-30T06:15:35.556Z,10.33
2019-04-30T06:16:35.543Z,10.38
2019-04-30T06:17:35.540Z,10.79
2019-04-30T06:18:35.540Z,10.93
2019-04-30T06:19:35.534Z,10.97
2019-04-30T06:20:35.527Z,11.10
2019-04-30T06:21:35.537Z,10.82
2019-04-30T06:22:35.515Z,10.75
2019-04-30T06:23:35.522Z,10.72
2019-04-30T06:24:35.510Z,10.89
2019-04-30T06:25:54.823Z,11.19
2019-04-30T06:26:35.506Z,11.32
2019-04-30T06:27:35.503Z,10.93
2019-04-30T06:28:35.492Z,10.78
2019-04-30T06:29:35.489Z,11.12
2019-04-30T06:30:35.485Z,11.22
2019-04-30T06:31:39.704Z,10.96
2019-04-30T06:32:35.475Z,11.19
2019-04-30T06:33:35.476Z,11.45
2019-04-30T06:34:35.471Z,10.94
2019-04-30T06:35:35.467Z,10.93
2019-04-30T06:36:35.465Z,11.11
2019-04-30T06:37:35.459Z,11.17
2019-04-30T06:38:35.455Z,11.15
2019-04-30T06:39:35.450Z,11.36
2019-04-30T06:40:35.453Z,11.05
2019-04-30T06:41:35.444Z,10.87
2019-04-30T06:42:35.469Z,10.87
2019-04-30T06:43:35.434Z,11.48
2019-04-30T06:44:39.370Z,11.78
2019-04-30T06:45:35.426Z,11.87
2019-04-30T06:46:35.421Z,12.24
2019-04-30T06:47:35.428Z,12.49
2019-04-30T06:48:35.423Z,12.39
2019-04-30T06:49:35.411Z,12.04
2019-04-30T06:50:35.408Z,12.20
2019-04-30T06:51:35.411Z,12.60
2019-04-30T06:52:35.402Z,12.53
2019-04-30T06:53:35.403Z,12.62
2019-04-30T06:54:35.395Z,12.29
2019-04-30T06:55:35.397Z,12.17
2019-04-30T06:56:35.390Z,12.49
2019-04-30T06:57:35.385Z,12.06
2019-04-30T06:58:35.385Z,11.99
2019-04-30T06:59:35.377Z,12.13
2019-04-30T07:00:35.632Z,11.99
2019-04-30T07:01:35.373Z,11.52
2019-04-30T07:02:35.370Z,11.68
2019-04-30T07:03:35.368Z,11.78
2019-04-30T07:04:35.368Z,11.83
2019-04-30T07:05:35.357Z,11.77
2019-04-30T07:06:37.154Z,11.78
2019-04-30T07:07:39.030Z,11.83
2019-04-30T07:08:39.458Z,11.54
2019-04-30T07:09:49.454Z,11.59
2019-04-30T07:10:35.348Z,11.62
2019-04-30T07:11:35.341Z,11.66
2019-04-30T07:12:35.340Z,11.36
2019-04-30T07:13:35.332Z,11.44
2019-04-30T07:14:35.333Z,11.40
2019-04-30T07:15:35.329Z,11.40
2019-04-30T07:16:35.332Z,11.44
2019-04-30T07:17:35.317Z,11.37
2019-04-30T07:18:35.320Z,11.12
2019-04-30T07:19:52.471Z,11.30
2019-04-30T07:20:35.308Z,11.35
2019-04-30T07:21:36.610Z,11.90
2019-04-30T07:22:40.728Z,12.60
2019-04-30T07:23:35.298Z,12.85
2019-04-30T07:24:35.300Z,13.00
2019-04-30T07:25:35.298Z,13.15
2019-04-30T07:26:35.289Z,13.67
2019-04-30T07:27:35.287Z,14.20
2019-04-30T07:28:44.639Z,14.41
2019-04-30T07:29:35.287Z,14.35
2019-04-30T07:30:35.282Z,14.41
2019-04-30T07:31:35.276Z,14.11
2019-04-30T07:32:35.281Z,14.28
2019-04-30T07:33:35.279Z,14.43
2019-04-30T07:34:37.176Z,14.92
2019-04-30T07:35:35.267Z,15.51
2019-04-30T07:36:46.964Z,15.09
2019-04-30T07:37:35.266Z,15.57
2019-04-30T07:38:35.861Z,15.43
2019-04-30T07:39:35.265Z,14.70
2019-04-30T07:40:35.266Z,13.59
2019-04-30T07:41:35.258Z,12.78
2019-04-30T07:42:39.758Z,12.72
2019-04-30T07:43:35.261Z,13.33
2019-04-30T07:44:36.581Z,13.25
2019-04-30T07:45:35.258Z,13.00
2019-04-30T07:46:41.065Z,12.90
2019-04-30T07:47:35.253Z,12.86
2019-04-30T07:48:35.253Z,13.12
2019-04-30T07:49:46.798Z,13.04
2019-04-30T07:50:35.754Z,12.73
2019-04-30T07:51:38.750Z,12.62
2019-04-30T07:52:35.873Z,12.31
2019-04-30T07:53:35.239Z,12.82
2019-04-30T07:54:35.242Z,12.78
2019-04-30T07:55:35.237Z,12.29
2019-04-30T07:56:37.997Z,12.42
2019-04-30T07:57:35.231Z,12.36
2019-04-30T07:58:35.232Z,12.67
2019-04-30T07:59:35.231Z,13.15
2019-04-30T08:00:35.231Z,13.56
2019-04-30T08:01:35.237Z,13.63
2019-04-30T08:02:38.126Z,12.57
2019-04-30T08:03:35.451Z,12.10
2019-04-30T08:04:35.220Z,12.45
2019-04-30T08:05:35.219Z,12.80
2019-04-30T08:06:35.325Z,12.57
2019-04-30T08:07:35.254Z,13.03
2019-04-30T08:08:35.228Z,13.12
2019-04-30T08:09:41.445Z,13.42
2019-04-30T08:10:35.210Z,13.38
2019-04-30T08:11:39.687Z,13.28
2019-04-30T08:12:37.465Z,13.65
2019-04-30T08:13:35.702Z,14.17
2019-04-30T08:14:35.209Z,14.12
2019-04-30T08:15:35.203Z,14.26
2019-04-30T08:16:35.198Z,14.51
2019-04-30T08:17:35.194Z,14.91
2019-04-30T08:18:35.191Z,14.82
2019-04-30T08:19:35.191Z,14.53
2019-04-30T08:20:35.196Z,14.54
2019-04-30T08:21:35.192Z,14.82
2019-04-30T08:22:35.192Z,15.44
2019-04-30T08:23:37.199Z,14.99
2019-04-30T08:24:35.194Z,15.18
2019-04-30T08:25:35.186Z,15.28
2019-04-30T08:26:35.186Z,15.54
2019-04-30T08:27:35.186Z,15.36
2019-04-30T08:28:35.189Z,15.03
2019-04-30T08:29:35.185Z,15.37
2019-04-30T08:30:35.177Z,15.59
2019-04-30T08:31:35.180Z,15.52
2019-04-30T08:32:35.176Z,15.61
2019-04-30T08:33:35.176Z,14.69
2019-04-30T08:34:35.173Z,14.68
2019-04-30T08:35:35.169Z,14.82
2019-04-30T08:36:35.172Z,14.58
2019-04-30T08:37:35.165Z,14.86
2019-04-30T08:38:35.170Z,15.40
2019-04-30T08:39:35.164Z,15.46
2019-04-30T08:40:35.164Z,15.00
2019-04-30T08:41:35.212Z,15.00
2019-04-30T08:42:37.638Z,14.81
2019-04-30T08:43:35.155Z,14.86
2019-04-30T08:44:35.154Z,14.66
2019-04-30T08:45:35.157Z,14.99
2019-04-30T08:46:35.154Z,15.52
2019-04-30T08:47:35.154Z,15.76
2019-04-30T08:48:49.931Z,15.95
2019-04-30T08:49:35.521Z,16.20
2019-04-30T08:50:35.144Z,16.33
2019-04-30T08:51:35.146Z,16.54
2019-04-30T08:52:35.145Z,16.15
2019-04-30T08:53:35.144Z,15.83
2019-04-30T08:54:35.141Z,15.49
2019-04-30T08:55:35.140Z,15.73
2019-04-30T08:56:35.140Z,14.97
2019-04-30T08:57:35.134Z,14.36
2019-04-30T08:58:35.131Z,14.85
2019-04-30T08:59:35.139Z,15.46
2019-04-30T09:00:35.128Z,15.37
2019-04-30T09:01:35.128Z,15.39
2019-04-30T09:02:35.123Z,16.20
2019-04-30T09:03:35.135Z,16.47
2019-04-30T09:04:35.126Z,16.36
2019-04-30T09:05:35.129Z,16.33
2019-04-30T09:06:35.122Z,16.04
2019-04-30T09:07:35.122Z,16.08
2019-04-30T09:08:35.121Z,16.09
2019-04-30T09:09:35.121Z,16.58
2019-04-30T09:10:35.121Z,16.87
2019-04-30T09:11:49.294Z,16.09
2019-04-30T09:12:35.111Z,16.28
2019-04-30T09:13:35.112Z,16.21
2019-04-30T09:14:35.118Z,16.78
2019-04-30T09:15:35.110Z,17.30
2019-04-30T09:16:35.170Z,17.44
2019-04-30T09:17:35.102Z,16.81
2019-04-30T09:18:35.104Z,16.94
2019-04-30T09:19:35.103Z,16.56
2019-04-30T09:20:35.107Z,16.93
2019-04-30T09:21:35.100Z,17.67
2019-04-30T09:22:35.100Z,17.67
2019-04-30T09:23:44.629Z,17.76
2019-04-30T09:24:35.101Z,18.55
2019-04-30T09:25:35.097Z,18.78
2019-04-30T09:26:35.093Z,18.60
2019-04-30T09:27:35.093Z,18.58
2019-04-30T09:28:35.098Z,17.92
2019-04-30T09:29:35.097Z,17.80
2019-04-30T09:30:35.096Z,17.70
2019-04-30T09:31:35.093Z,18.47
2019-04-30T09:32:35.092Z,17.89
2019-04-30T09:33:35.089Z,17.22
2019-04-30T09:34:35.090Z,17.74
2019-04-30T09:35:35.092Z,18.52
2019-04-30T09:36:35.099Z,18.66
2019-04-30T09:37:35.091Z,18.52
2019-04-30T09:38:35.088Z,18.56
2019-04-30T09:39:35.095Z,17.98
2019-04-30T09:40:35.099Z,18.01
2019-04-30T09:41:35.089Z,18.73
2019-04-30T09:42:35.093Z,18.78
2019-04-30T09:43:35.098Z,18.04
2019-04-30T09:44:35.099Z,18.15
2019-04-30T09:45:35.095Z,18.07
2019-04-30T09:46:35.093Z,17.68
2019-04-30T09:47:35.105Z,18.34
2019-04-30T09:48:35.099Z,18.26
2019-04-30T09:49:35.101Z,18.74
2019-04-30T09:50:35.534Z,19.07
2019-04-30T09:51:35.099Z,19.27
2019-04-30T09:52:36.010Z,18.77
2019-04-30T09:53:35.227Z,18.44
2019-04-30T09:54:35.103Z,18.38
2019-04-30T09:55:35.106Z,18.43
2019-04-30T09:56:35.105Z,18.84
2019-04-30T09:57:35.106Z,19.14
2019-04-30T09:58:35.104Z,18.78
2019-04-30T09:59:35.107Z,18.70
2019-04-30T10:00:35.108Z,18.95
2019-04-30T10:01:35.108Z,19.07
2019-04-30T10:02:35.116Z,18.20
2019-04-30T10:03:36.151Z,18.44
2019-04-30T10:04:35.525Z,19.29
2019-04-30T10:05:35.118Z,19.34
2019-04-30T10:06:39.715Z,18.62
2019-04-30T10:07:35.124Z,19.22
2019-04-30T10:08:46.125Z,19.77
2019-04-30T10:09:35.125Z,20.00
2019-04-30T10:10:35.127Z,19.31
2019-04-30T10:11:35.133Z,18.96
2019-04-30T10:12:35.134Z,19.66
2019-04-30T10:13:35.143Z,20.19
2019-04-30T10:14:35.145Z,21.09
2019-04-30T10:15:35.149Z,21.70
2019-04-30T10:16:35.156Z,23.43
2019-04-30T10:17:35.159Z,23.65
2019-04-30T10:18:35.162Z,23.32
2019-04-30T10:19:35.164Z,24.26
2019-04-30T10:20:35.172Z,24.61
2019-04-30T10:21:35.196Z,25.55
2019-04-30T10:22:35.186Z,24.58
2019-04-30T10:23:35.187Z,24.20
2019-04-30T10:24:35.196Z,24.29
2019-04-30T10:25:35.209Z,23.55
2019-04-30T10:26:35.211Z,24.66
2019-04-30T10:27:35.220Z,23.88
2019-04-30T10:28:35.246Z,23.56
2019-04-30T10:29:35.233Z,23.80
2019-04-30T10:30:35.245Z,24.45
2019-04-30T10:31:35.251Z,22.45
2019-04-30T10:32:35.256Z,22.15
2019-04-30T10:33:35.270Z,23.50
2019-04-30T10:34:35.273Z,24.36
2019-04-30T10:35:35.289Z,23.98
2019-04-30T10:36:35.294Z,21.03
2019-04-30T10:37:35.306Z,22.47
2019-04-30T10:38:35.317Z,23.54
2019-04-30T10:39:35.346Z,23.93
2019-04-30T10:40:35.348Z,23.83
2019-04-30T10:41:35.345Z,23.55
2019-04-30T10:42:35.351Z,24.26
2019-04-30T10:43:35.363Z,22.10
2019-04-30T10:44:35.372Z,23.56
2019-04-30T10:45:35.383Z,25.26
2019-04-30T10:46:35.389Z,25.83
2019-04-30T10:47:35.399Z,25.35
2019-04-30T10:48:35.418Z,24.28
2019-04-30T10:49:35.438Z,23.10
2019-04-30T10:50:35.434Z,23.21
2019-04-30T10:51:35.447Z,23.03
2019-04-30T10:52:35.455Z,23.55
2019-04-30T10:53:35.467Z,22.11
2019-04-30T10:54:35.478Z,21.12
2019-04-30T10:55:35.492Z,22.20
2019-04-30T10:56:35.496Z,21.55
2019-04-30T10:57:35.512Z,20.44
2019-04-30T10:58:35.520Z,19.81
2019-04-30T10:59:35.532Z,20.06
2019-04-30T11:00:35.534Z,20.29
2019-04-30T11:01:35.552Z,19.94
2019-04-30T11:02:35.555Z,19.26
2019-04-30T11:03:35.564Z,20.34
2019-04-30T11:04:35.598Z,22.14
2019-04-30T11:05:35.584Z,24.21
2019-04-30T11:06:35.586Z,24.58
2019-04-30T11:07:35.603Z,24.40
2019-04-30T11:08:35.611Z,24.48
2019-04-30T11:09:35.620Z,21.99
2019-04-30T11:10:35.626Z,24.38
2019-04-30T11:11:35.637Z,26.00
2019-04-30T11:12:35.651Z,26.53
2019-04-30T11:13:35.664Z,26.89
2019-04-30T11:14:35.673Z,25.43
2019-04-30T11:15:35.680Z,25.50
2019-04-30T11:16:35.701Z,25.83
2019-04-30T11:17:35.911Z,24.18
2019-04-30T11:18:35.960Z,22.59
2019-04-30T11:19:35.987Z,21.21
2019-04-30T11:20:35.990Z,20.93
2019-04-30T11:21:35.953Z,20.77
2019-04-30T11:22:35.969Z,20.69
2019-04-30T11:23:36.014Z,20.25
2019-04-30T11:24:40.885Z,19.70
2019-04-30T11:25:36.665Z,19.52
2019-04-30T11:26:36.385Z,18.73
2019-04-30T11:27:36.476Z,19.94
2019-04-30T11:28:36.009Z,21.88
2019-04-30T11:29:35.936Z,23.98
2019-04-30T11:30:36.037Z,24.42
2019-04-30T11:31:36.048Z,25.23
2019-04-30T11:32:36.126Z,25.38
2019-04-30T11:33:36.097Z,23.99
2019-04-30T11:34:35.869Z,24.17
2019-04-30T11:35:35.881Z,22.39
2019-04-30T11:36:35.896Z,22.14
2019-04-30T11:37:35.899Z,22.38
2019-04-30T11:38:35.913Z,22.29
2019-04-30T11:39:35.929Z,22.90
2019-04-30T11:40:39.293Z,22.81
2019-04-30T11:41:35.947Z,22.65
2019-04-30T11:42:35.964Z,23.58
2019-04-30T11:43:35.983Z,25.06
2019-04-30T11:44:36.026Z,24.23
2019-04-30T11:45:36.004Z,24.86
2019-04-30T11:46:36.006Z,26.44
2019-04-30T11:47:36.025Z,26.68
2019-04-30T11:48:36.036Z,26.60
2019-04-30T11:49:36.041Z,24.96
2019-04-30T11:50:36.062Z,25.66
2019-04-30T11:51:36.080Z,25.90
2019-04-30T11:52:36.086Z,26.41
2019-04-30T11:53:36.104Z,26.05
2019-04-30T11:54:48.498Z,25.78
2019-04-30T11:55:36.127Z,26.80
2019-04-30T11:56:38.369Z,27.51
2019-04-30T11:57:36.151Z,27.47
2019-04-30T11:58:36.162Z,27.49
2019-04-30T11:59:36.174Z,25.87
2019-04-30T12:00:36.189Z,25.13
2019-04-30T12:01:36.205Z,24.57
2019-04-30T12:02:36.221Z,24.57
2019-04-30T12:03:36.237Z,26.00
2019-04-30T12:04:36.250Z,25.78
2019-04-30T12:05:36.256Z,25.23
2019-04-30T12:06:36.273Z,26.34
2019-04-30T12:07:36.289Z,25.23
2019-04-30T12:08:36.303Z,24.54
2019-04-30T12:09:36.311Z,26.05
2019-04-30T12:10:36.331Z,27.03
2019-04-30T12:11:36.348Z,26.52
2019-04-30T12:12:36.356Z,23.76
2019-04-30T12:13:36.373Z,23.81
2019-04-30T12:14:36.385Z,24.89
2019-04-30T12:15:36.403Z,25.80
2019-04-30T12:16:36.415Z,27.26
2019-04-30T12:17:36.432Z,27.00
2019-04-30T12:18:36.441Z,27.08
2019-04-30T12:19:36.459Z,26.23
2019-04-30T12:20:36.474Z,24.91
2019-04-30T12:21:36.490Z,22.85
2019-04-30T12:22:36.499Z,23.55
2019-04-30T12:23:36.513Z,25.59
2019-04-30T12:24:36.527Z,26.81
2019-04-30T12:25:36.546Z,26.66
2019-04-30T12:26:36.979Z,27.60
2019-04-30T12:27:38.559Z,26.58
2019-04-30T12:28:36.593Z,24.74
2019-04-30T12:29:36.600Z,26.10
2019-04-30T12:30:36.622Z,25.48
2019-04-30T12:31:36.635Z,25.18
2019-04-30T12:32:36.643Z,25.59
2019-04-30T12:33:36.656Z,24.74
2019-04-30T12:34:36.677Z,25.69
2019-04-30T12:35:36.689Z,28.10
2019-04-30T12:36:38.707Z,28.10
2019-04-30T12:37:36.719Z,29.63
2019-04-30T12:38:36.735Z,28.57
2019-04-30T12:39:36.754Z,29.20
2019-04-30T12:40:36.767Z,29.38
2019-04-30T12:41:36.775Z,29.49
2019-04-30T12:42:38.444Z,29.17
2019-04-30T12:43:36.807Z,27.39
2019-04-30T12:44:39.925Z,28.74
2019-04-30T12:45:36.835Z,29.61
2019-04-30T12:46:38.638Z,26.63
2019-04-30T12:47:36.870Z,26.60
2019-04-30T12:48:36.884Z,23.31
2019-04-30T12:49:36.896Z,21.95
2019-04-30T12:50:39.097Z,21.99
2019-04-30T12:51:45.512Z,21.52
2019-04-30T12:52:36.933Z,20.97
2019-04-30T12:53:37.625Z,21.85
2019-04-30T12:54:36.964Z,21.60
2019-04-30T12:55:39.144Z,23.41
2019-04-30T12:56:36.982Z,25.11
2019-04-30T12:57:39.098Z,25.29